Loveland, CO (80537)

5:02 PM MDT on April 30, 2017 (GMT -0600)
Sedona Hills North | | Change Station

Elev 5476 ft 40.36 °N, 105.21 °W | Updated 2 minutes ago

Partly Cloudy
Partly Cloudy
59.6 °F
Feels Like 59.6 °F
N
6.0
Wind Variable Wind from NW
Gusts 15.0 mph

Today
High -- | Low -- °F
--% Chance of Precip.
Yesterday
High -- | Low -- °F
Precip. -- in
Pressure 29.80 in
Visibility 10.0 miles
Clouds Clear
Dew Point 20.7 °F
Humidity 22%
Rainfall 0.07 in
Snow Depth Not available.
6:00 AM 7:55 PM
Waxing Crescent, 27% visible
METAR KFNL 302256Z AUTO 33021G28KT 10SM CLR 16/M06 A2984 RMK AO2 PK WND 33033/2216 SLP090 T01611056
Pressure 29.80 in
Visibility 10.0 miles
Clouds Clear
Dew Point 20.7 °F
Humidity 22%
Rainfall 0.07 in
Snow Depth Not available.
6:00 AM 7:55 PM
Waxing Crescent, 27% visible
METAR KFNL 302256Z AUTO 33021G28KT 10SM CLR 16/M06 A2984 RMK AO2 PK WND 33033/2216 SLP090 T01611056

Get Severe Weather Alerts

Thanks for signing up!

Be on the lookout for a verification email in your inbox.

You'll start receiving the daily forecast at 8 AM.

×

10-Day Weather Forecast

Almanac

Astronomy

Apr. 30, 2017 Rise Set
Actual Time
Civil Twilight
Nautical Twilight
Astronomical Twilight
Moon
Length of Visible Light
Length of Day
Tomorrow will be .
, % of the Moon is Illuminated

Today's Extremes

State Highs State Lows

Community

WunderPhotos

WunderBlog® & News

Nearby

Air Quality

  Air Quality AQ Index Pollutant
Not available.

Snow Depth

Station Depth Elevation

Earthquake Activity

City Distance Mag. Time & Date
Minimum magnitude displayed is 2.5.

Coastal Water Temperatures

Place Temperature

Stations

Nearby Weather Stations

Station Location Temp. Windchill Dew Point Humidity Wind Precip. Elev Updated Type
                   

Watches & Warnings

There are currently no watches in effect.